createdAt,value
2022-08-17T00:00:44.136Z,3.05
2022-08-17T00:03:19.865Z,3.22
2022-08-17T00:06:04.903Z,3.22
2022-08-17T00:08:38.425Z,3.35
2022-08-17T00:11:35.286Z,2.90
2022-08-17T00:14:15.417Z,2.90
2022-08-17T00:16:57.094Z,3.20
2022-08-17T00:19:27.240Z,3.13
2022-08-17T00:22:34.131Z,3.20
2022-08-17T00:24:48.702Z,3.15
2022-08-17T00:27:17.190Z,3.03
2022-08-17T00:29:45.953Z,3.15
2022-08-17T00:33:12.681Z,3.20
2022-08-17T00:35:14.446Z,3.03
2022-08-17T00:37:45.670Z,3.08
2022-08-17T00:40:15.614Z,3.10
2022-08-17T00:42:47.020Z,3.20
2022-08-17T00:47:44.741Z,2.65
2022-08-17T00:50:18.995Z,3.10
2022-08-17T00:52:57.500Z,3.45
2022-08-17T00:55:26.494Z,3.08
2022-08-17T00:58:00.095Z,3.20
2022-08-17T01:00:37.657Z,2.95
2022-08-17T01:03:27.530Z,3.10
2022-08-17T01:06:02.667Z,3.10
2022-08-17T01:08:33.081Z,3.00
2022-08-17T01:11:03.174Z,3.20
2022-08-17T01:13:43.829Z,2.90
2022-08-17T01:16:31.574Z,3.47
2022-08-17T01:19:26.242Z,3.10
2022-08-17T01:22:01.737Z,2.85
2022-08-17T01:24:30.624Z,3.00
2022-08-17T01:27:02.748Z,3.10
2022-08-17T01:29:41.759Z,2.90
2022-08-17T01:32:11.139Z,3.28
2022-08-17T01:34:43.322Z,3.00
2022-08-17T01:37:28.122Z,2.85
2022-08-17T01:40:18.385Z,3.00
2022-08-17T01:42:56.840Z,3.03
2022-08-17T01:45:30.570Z,2.83
2022-08-17T01:47:58.743Z,3.10
2022-08-17T01:50:34.595Z,3.00
2022-08-17T01:53:15.323Z,2.80
2022-08-17T01:55:58.358Z,2.83
2022-08-17T01:58:27.780Z,3.15
2022-08-17T02:01:00.566Z,2.78
2022-08-17T02:03:31.481Z,3.08
2022-08-17T02:05:59.946Z,3.30
2022-08-17T02:08:38.103Z,3.53
2022-08-17T02:11:14.700Z,3.08
2022-08-17T02:13:45.196Z,3.40
2022-08-17T02:16:13.844Z,3.15
2022-08-17T02:18:42.163Z,3.40
2022-08-17T02:21:10.666Z,3.22
2022-08-17T02:23:43.354Z,3.38
2022-08-17T02:26:24.095Z,3.40
2022-08-17T02:28:55.624Z,3.35
2022-08-17T02:31:23.485Z,3.40
2022-08-17T02:34:00.261Z,4.03
2022-08-17T02:36:34.744Z,3.75
2022-08-17T02:39:07.084Z,3.60
2022-08-17T02:41:36.511Z,3.97
2022-08-17T02:44:06.018Z,3.92
2022-08-17T02:46:33.977Z,4.43
2022-08-17T02:49:01.970Z,3.83
2022-08-17T02:51:29.937Z,3.75
2022-08-17T02:54:38.941Z,4.60
2022-08-17T02:56:46.662Z,6.25
2022-08-17T02:59:14.579Z,4.78
2022-08-17T03:01:42.855Z,3.70
2022-08-17T03:04:11.055Z,3.60
2022-08-17T03:06:39.606Z,3.65
2022-08-17T03:09:09.476Z,3.50
2022-08-17T03:11:37.402Z,3.30
2022-08-17T03:14:05.339Z,3.65
2022-08-17T03:16:33.532Z,3.83
2022-08-17T03:19:02.625Z,3.60
2022-08-17T03:21:30.527Z,3.40
2022-08-17T03:23:58.442Z,3.30
2022-08-17T03:26:29.647Z,3.30
2022-08-17T03:28:57.922Z,3.80
2022-08-17T03:31:25.916Z,3.55
2022-08-17T03:33:53.912Z,3.83
2022-08-17T03:36:22.028Z,3.28
2022-08-17T03:38:50.410Z,3.30
2022-08-17T03:41:19.071Z,3.60
2022-08-17T03:43:47.945Z,3.35
2022-08-17T03:46:35.693Z,3.70
2022-08-17T03:49:25.473Z,3.40
2022-08-17T03:52:14.707Z,3.60
2022-08-17T03:55:03.080Z,3.30
2022-08-17T03:57:32.652Z,3.28
2022-08-17T04:00:00.810Z,3.58
2022-08-17T04:02:34.080Z,3.67
2022-08-17T04:05:02.731Z,3.70
2022-08-17T04:07:32.400Z,4.03
2022-08-17T04:10:00.867Z,3.65
2022-08-17T04:12:42.346Z,3.92
2022-08-17T04:17:41.184Z,3.80
2022-08-17T04:20:11.382Z,3.92
2022-08-17T04:22:40.605Z,3.65
2022-08-17T04:25:17.056Z,3.67
2022-08-17T04:27:45.205Z,3.70
2022-08-17T04:30:14.203Z,3.80
2022-08-17T04:33:04.895Z,3.95
2022-08-17T04:35:53.980Z,3.88
2022-08-17T04:38:26.001Z,3.63
2022-08-17T04:41:14.351Z,3.80
2022-08-17T04:43:46.805Z,4.22
2022-08-17T04:46:22.805Z,4.03
2022-08-17T04:48:55.901Z,4.10
2022-08-17T04:51:56.880Z,4.00
2022-08-17T04:54:29.738Z,3.75
2022-08-17T04:56:58.146Z,4.10
2022-08-17T04:59:26.120Z,3.85
2022-08-17T05:01:54.949Z,4.05
2022-08-17T05:04:34.299Z,4.35
2022-08-17T05:07:04.609Z,4.25
2022-08-17T05:09:32.941Z,4.03
2022-08-17T05:12:02.622Z,4.28
2022-08-17T05:14:32.852Z,4.18
2022-08-17T05:17:07.145Z,3.75
2022-08-17T05:19:39.687Z,4.10
2022-08-17T05:22:08.156Z,4.20
2022-08-17T05:24:40.807Z,4.10
2022-08-17T05:27:14.298Z,4.10
2022-08-17T05:29:47.179Z,4.22
2022-08-17T05:32:37.420Z,4.60
2022-08-17T05:35:03.732Z,4.10
2022-08-17T05:37:32.381Z,4.43
2022-08-17T05:40:00.414Z,4.60
2022-08-17T05:42:28.672Z,4.40
2022-08-17T05:44:58.848Z,4.50
2022-08-17T05:47:28.366Z,4.07
2022-08-17T05:49:57.157Z,4.45
2022-08-17T05:53:00.379Z,4.35
2022-08-17T05:55:51.656Z,4.25
2022-08-17T05:59:08.743Z,3.97
2022-08-17T06:01:58.050Z,4.13
2022-08-17T06:04:41.335Z,4.10
2022-08-17T06:07:27.643Z,4.05
2022-08-17T06:10:23.213Z,4.28
2022-08-17T06:13:28.021Z,4.00
2022-08-17T06:16:33.575Z,4.22
2022-08-17T06:19:17.500Z,4.15
2022-08-17T06:21:50.868Z,4.07
2022-08-17T06:24:34.271Z,4.15
2022-08-17T06:27:11.571Z,3.90
2022-08-17T06:30:09.652Z,4.20
2022-08-17T06:32:42.804Z,3.90
2022-08-17T06:35:16.114Z,3.80
2022-08-17T06:38:05.620Z,4.07
2022-08-17T06:41:43.577Z,4.05
2022-08-17T06:45:02.977Z,3.95
2022-08-17T06:47:51.522Z,3.85
2022-08-17T06:50:47.255Z,3.92
2022-08-17T06:53:22.251Z,4.03
2022-08-17T06:56:14.184Z,3.75
2022-08-17T06:58:44.882Z,4.13
2022-08-17T07:01:19.395Z,3.80
2022-08-17T07:03:55.002Z,4.03
2022-08-17T07:06:29.790Z,4.35
2022-08-17T07:09:18.797Z,4.22
2022-08-17T07:11:56.206Z,4.20
2022-08-17T07:14:48.250Z,4.30
2022-08-17T07:17:18.964Z,4.18
2022-08-17T07:19:52.858Z,3.90
2022-08-17T07:22:25.952Z,3.78
2022-08-17T07:25:09.510Z,3.75
2022-08-17T07:27:41.948Z,4.03
2022-08-17T07:30:18.578Z,3.95
2022-08-17T07:33:13.409Z,3.92
2022-08-17T07:35:44.053Z,3.83
2022-08-17T07:38:25.147Z,3.60
2022-08-17T07:40:58.004Z,4.03
2022-08-17T07:43:29.401Z,3.80
2022-08-17T07:46:48.400Z,4.07
2022-08-17T07:49:31.876Z,3.47
2022-08-17T07:52:50.484Z,4.20
2022-08-17T07:55:35.001Z,3.95
2022-08-17T07:58:03.894Z,3.72
2022-08-17T08:00:33.650Z,3.88
2022-08-17T08:03:20.735Z,3.70
2022-08-17T08:06:01.557Z,3.78
2022-08-17T08:08:43.884Z,3.78
2022-08-17T08:11:27.955Z,3.60
2022-08-17T08:13:58.715Z,3.40
2022-08-17T08:16:31.765Z,3.25
2022-08-17T08:19:02.899Z,3.30
2022-08-17T08:21:52.196Z,3.30
2022-08-17T08:25:08.450Z,3.22
2022-08-17T08:28:09.855Z,2.97
2022-08-17T08:30:47.129Z,2.70
2022-08-17T08:33:49.750Z,2.65
2022-08-17T08:36:56.929Z,2.90
2022-08-17T08:39:58.677Z,2.75
2022-08-17T08:42:48.154Z,2.70
2022-08-17T08:45:45.277Z,2.72
2022-08-17T08:48:45.972Z,2.80
2022-08-17T08:51:47.926Z,2.70
2022-08-17T08:54:57.062Z,2.65
2022-08-17T08:58:08.625Z,2.55
2022-08-17T09:01:01.041Z,2.70
2022-08-17T09:05:12.735Z,2.53
2022-08-17T09:07:43.718Z,2.30
2022-08-17T09:10:11.923Z,2.42
2022-08-17T09:12:54.501Z,2.75
2022-08-17T09:15:31.469Z,2.40
2022-08-17T09:19:01.747Z,2.50
2022-08-17T09:21:33.943Z,2.50
2022-08-17T09:24:33.200Z,2.50
2022-08-17T09:27:30.625Z,2.42
2022-08-17T09:30:09.420Z,2.25
2022-08-17T09:32:55.207Z,2.35
2022-08-17T09:36:05.741Z,2.50
2022-08-17T09:39:42.285Z,2.67
2022-08-17T09:43:05.532Z,2.40
2022-08-17T09:45:42.615Z,2.35
2022-08-17T09:48:38.918Z,2.60
2022-08-17T09:51:26.408Z,2.33
2022-08-17T09:53:54.506Z,2.97
2022-08-17T09:56:27.897Z,2.53
2022-08-17T09:59:22.416Z,3.05
2022-08-17T10:02:18.889Z,3.20
2022-08-17T10:05:37.475Z,3.05
2022-08-17T10:08:37.398Z,3.08
2022-08-17T10:12:11.461Z,3.30
2022-08-17T10:15:19.538Z,3.95
2022-08-17T10:17:54.013Z,4.00
2022-08-17T10:21:21.548Z,4.00
2022-08-17T10:24:30.412Z,3.92
2022-08-17T10:27:03.692Z,3.92
2022-08-17T10:29:48.974Z,3.78
2022-08-17T10:32:45.610Z,3.80
2022-08-17T10:35:30.454Z,3.40
2022-08-17T10:38:25.484Z,3.67
2022-08-17T10:41:00.454Z,3.65
2022-08-17T10:44:38.631Z,4.00
2022-08-17T10:47:09.200Z,3.55
2022-08-17T10:49:47.618Z,3.42
2022-08-17T10:52:44.604Z,3.70
2022-08-17T10:55:18.872Z,3.40
2022-08-17T10:57:50.447Z,3.58
2022-08-17T11:00:25.604Z,3.25
2022-08-17T11:02:57.650Z,3.40
2022-08-17T11:05:59.003Z,3.30
2022-08-17T11:08:59.454Z,3.15
2022-08-17T11:11:51.597Z,2.97
2022-08-17T11:14:44.268Z,2.95
2022-08-17T11:17:58.211Z,3.10
2022-08-17T11:21:09.494Z,2.90
2022-08-17T11:24:20.732Z,2.80
2022-08-17T11:27:07.842Z,2.78
2022-08-17T11:30:19.566Z,2.70
2022-08-17T11:32:54.404Z,2.70
2022-08-17T11:35:22.939Z,2.65
2022-08-17T11:38:31.248Z,2.20
2022-08-17T11:41:41.197Z,2.50
2022-08-17T11:45:09.307Z,2.25
2022-08-17T11:48:27.933Z,2.45
2022-08-17T11:51:47.549Z,2.17
2022-08-17T11:54:32.877Z,2.25
2022-08-17T11:57:30.488Z,2.47
2022-08-17T12:00:11.794Z,2.25
2022-08-17T12:05:27.166Z,2.20
2022-08-17T12:08:21.598Z,2.20
2022-08-17T12:11:11.158Z,1.95
2022-08-17T12:13:48.449Z,2.22
2022-08-17T12:16:19.535Z,2.20
2022-08-17T12:19:02.268Z,2.22
2022-08-17T12:21:58.040Z,2.20
2022-08-17T12:24:56.627Z,2.50
2022-08-17T12:28:04.656Z,2.22
2022-08-17T12:30:22.441Z,2.38
2022-08-17T12:32:51.002Z,2.25
2022-08-17T12:35:35.856Z,2.45
2022-08-17T12:38:22.290Z,2.33
2022-08-17T12:40:58.318Z,2.08
2022-08-17T12:43:31.247Z,2.40
2022-08-17T12:46:13.278Z,2.20
2022-08-17T12:48:59.932Z,2.10
2022-08-17T12:51:29.747Z,2.08
2022-08-17T12:53:59.020Z,2.20
2022-08-17T12:56:27.418Z,2.30
2022-08-17T12:58:56.744Z,2.20
2022-08-17T13:01:26.143Z,2.28
2022-08-17T13:04:00.852Z,2.50
2022-08-17T13:06:36.868Z,2.35
2022-08-17T13:09:40.051Z,2.40
2022-08-17T13:12:09.057Z,2.47
2022-08-17T13:14:37.041Z,2.30
2022-08-17T13:17:12.646Z,2.45
2022-08-17T13:19:50.401Z,2.42
2022-08-17T13:22:22.879Z,2.15
2022-08-17T13:25:05.384Z,2.70
2022-08-17T13:27:34.387Z,2.17
2022-08-17T13:30:11.997Z,2.28
2022-08-17T13:32:45.686Z,2.35
2022-08-17T13:35:39.807Z,2.15
2022-08-17T13:38:17.478Z,2.03
2022-08-17T13:40:52.346Z,2.28
2022-08-17T13:43:45.020Z,2.30
2022-08-17T13:46:21.172Z,2.42
2022-08-17T13:49:06.602Z,2.35
2022-08-17T13:51:54.874Z,2.50
2022-08-17T13:54:34.478Z,2.33
2022-08-17T13:57:22.755Z,2.13
2022-08-17T14:00:06.014Z,2.10
2022-08-17T14:02:36.646Z,2.30
2022-08-17T14:05:06.297Z,2.35
2022-08-17T14:07:40.370Z,2.40
2022-08-17T14:10:17.511Z,2.42
2022-08-17T14:12:53.919Z,2.65
2022-08-17T14:15:25.122Z,2.38
2022-08-17T14:18:13.029Z,2.30
2022-08-17T14:20:41.022Z,2.38
2022-08-17T14:23:09.323Z,2.10
2022-08-17T14:25:37.439Z,2.10
2022-08-17T14:28:07.221Z,2.40
2022-08-17T14:30:37.826Z,2.65
2022-08-17T14:33:06.069Z,2.30
2022-08-17T14:35:34.626Z,2.20
2022-08-17T14:38:02.766Z,2.22
2022-08-17T14:40:31.166Z,2.22
2022-08-17T14:42:59.778Z,2.25
2022-08-17T14:45:32.587Z,2.50
2022-08-17T14:48:07.945Z,2.25
2022-08-17T14:50:38.836Z,2.17
2022-08-17T14:53:11.349Z,2.40
2022-08-17T14:55:42.319Z,2.30
2022-08-17T14:58:11.170Z,2.30
2022-08-17T15:00:42.461Z,2.35
2022-08-17T15:03:11.765Z,2.45
2022-08-17T15:05:41.349Z,2.22
2022-08-17T15:08:11.022Z,2.40
2022-08-17T15:10:39.369Z,2.20
2022-08-17T15:13:24.531Z,2.25
2022-08-17T15:15:53.401Z,2.22
2022-08-17T15:18:21.630Z,2.40
2022-08-17T15:20:50.413Z,2.35
2022-08-17T15:23:22.697Z,2.20
2022-08-17T15:25:54.000Z,2.38
2022-08-17T15:28:25.415Z,2.30
2022-08-17T15:30:54.208Z,2.25
2022-08-17T15:33:29.459Z,2.35
2022-08-17T15:36:02.442Z,2.13
2022-08-17T15:38:34.105Z,2.42
2022-08-17T15:41:03.636Z,2.60
2022-08-17T15:43:32.688Z,2.53
2022-08-17T15:46:15.389Z,2.30
2022-08-17T15:48:47.727Z,2.42
2022-08-17T15:51:26.348Z,2.42
2022-08-17T15:53:58.611Z,2.20
2022-08-17T15:56:28.451Z,2.20
2022-08-17T15:58:56.567Z,2.83
2022-08-17T16:02:11.961Z,2.55
2022-08-17T16:04:30.401Z,2.33
2022-08-17T16:07:00.135Z,2.20
2022-08-17T16:09:28.963Z,2.33
2022-08-17T16:11:56.912Z,2.50
2022-08-17T16:14:30.275Z,2.30
2022-08-17T16:17:01.909Z,2.40
2022-08-17T16:19:30.485Z,2.42
2022-08-17T16:21:58.774Z,2.72
2022-08-17T16:24:27.105Z,2.35
2022-08-17T16:26:59.927Z,2.53
2022-08-17T16:29:28.395Z,2.13
2022-08-17T16:31:57.684Z,3.10
2022-08-17T16:34:26.144Z,2.30
2022-08-17T16:36:56.462Z,2.45
2022-08-17T16:39:28.106Z,2.50
2022-08-17T16:41:57.956Z,2.28
2022-08-17T16:44:31.808Z,2.55
2022-08-17T16:47:01.321Z,2.22
2022-08-17T16:49:37.481Z,2.67
2022-08-17T16:52:10.899Z,2.65
2022-08-17T16:54:44.886Z,2.60
2022-08-17T16:57:14.599Z,2.47
2022-08-17T16:59:51.194Z,2.50
2022-08-17T17:02:31.714Z,2.47
2022-08-17T17:05:33.545Z,2.28
2022-08-17T17:08:14.209Z,2.60
2022-08-17T17:10:51.552Z,2.63
2022-08-17T17:13:36.358Z,2.40
2022-08-17T17:16:29.072Z,2.22
2022-08-17T17:19:09.488Z,2.38
2022-08-17T17:22:16.960Z,2.42
2022-08-17T17:25:04.015Z,2.55
2022-08-17T17:28:35.636Z,2.58
2022-08-17T17:31:08.301Z,2.58
2022-08-17T17:33:51.041Z,2.45
2022-08-17T17:36:40.784Z,2.50
2022-08-17T17:39:49.904Z,2.65
2022-08-17T17:42:24.822Z,2.70
2022-08-17T17:45:06.250Z,3.15
2022-08-17T17:47:35.266Z,3.35
2022-08-17T17:50:11.841Z,3.38
2022-08-17T17:52:47.542Z,3.70
2022-08-17T17:55:42.329Z,3.53
2022-08-17T17:58:33.428Z,3.03
2022-08-17T18:01:39.261Z,3.33
2022-08-17T18:04:36.644Z,2.75
2022-08-17T18:07:20.152Z,2.65
2022-08-17T18:10:19.469Z,2.80
2022-08-17T18:13:20.682Z,2.80
2022-08-17T18:15:52.983Z,2.70
2022-08-17T18:18:40.285Z,2.80
2022-08-17T18:21:29.780Z,2.83
2022-08-17T18:24:03.090Z,2.75
2022-08-17T18:26:57.657Z,2.83
2022-08-17T18:29:30.523Z,2.70
2022-08-17T18:32:27.306Z,3.03
2022-08-17T18:35:08.785Z,2.70
2022-08-17T18:37:53.616Z,3.00
2022-08-17T18:40:36.288Z,2.80
2022-08-17T18:43:14.397Z,2.95
2022-08-17T18:45:56.394Z,3.08
2022-08-17T18:48:49.419Z,3.00
2022-08-17T18:51:40.596Z,3.00
2022-08-17T18:54:26.205Z,3.10
2022-08-17T18:57:02.029Z,2.72
2022-08-17T18:59:50.179Z,3.03
2022-08-17T19:02:36.090Z,2.90
2022-08-17T19:05:36.810Z,2.97
2022-08-17T19:08:35.129Z,2.90
2022-08-17T19:11:10.100Z,2.80
2022-08-17T19:14:17.301Z,2.80
2022-08-17T19:17:00.584Z,2.72
2022-08-17T19:19:36.650Z,3.33
2022-08-17T19:22:53.394Z,3.10
2022-08-17T19:25:34.304Z,2.88
2022-08-17T19:31:00.488Z,2.70
2022-08-17T19:33:31.726Z,2.92
2022-08-17T19:36:13.275Z,3.03
2022-08-17T19:39:12.645Z,3.25
2022-08-17T19:41:48.294Z,3.15
2022-08-17T19:44:47.072Z,3.10
2022-08-17T19:47:55.405Z,3.30
2022-08-17T19:50:56.672Z,3.03
2022-08-17T19:54:05.467Z,2.85
2022-08-17T19:57:01.761Z,3.15
2022-08-17T19:59:55.674Z,3.28
2022-08-17T20:03:07.953Z,3.40
2022-08-17T20:06:15.068Z,3.65
2022-08-17T20:08:58.232Z,3.05
2022-08-17T20:11:53.838Z,3.22
2022-08-17T20:14:33.025Z,3.03
2022-08-17T20:17:03.410Z,3.20
2022-08-17T20:20:23.353Z,3.13
2022-08-17T20:23:04.141Z,3.27
2022-08-17T20:25:47.100Z,2.90
2022-08-17T20:28:38.972Z,3.10
2022-08-17T20:34:31.009Z,3.13
2022-08-17T20:39:52.829Z,3.10
2022-08-17T20:42:21.888Z,3.42
2022-08-17T20:44:57.847Z,3.40
2022-08-17T20:48:07.365Z,3.58
2022-08-17T20:50:50.800Z,3.30
2022-08-17T20:53:47.652Z,3.60
2022-08-17T20:56:43.588Z,3.10
2022-08-17T20:59:27.728Z,3.42
2022-08-17T21:02:18.801Z,3.80
2022-08-17T21:07:42.720Z,3.30
2022-08-17T21:10:35.881Z,3.17
2022-08-17T21:13:15.631Z,3.30
2022-08-17T21:16:07.063Z,3.75
2022-08-17T21:19:16.941Z,3.65
2022-08-17T21:22:32.696Z,3.53
2022-08-17T21:25:49.054Z,3.00
2022-08-17T21:28:23.219Z,3.20
2022-08-17T21:31:09.142Z,3.55
2022-08-17T21:33:39.666Z,3.25
2022-08-17T21:36:13.377Z,3.17
2022-08-17T21:38:47.463Z,3.17
2022-08-17T21:41:31.030Z,3.70
2022-08-17T21:44:26.719Z,3.35
2022-08-17T21:47:43.602Z,3.10
2022-08-17T21:50:25.948Z,3.30
2022-08-17T21:53:02.981Z,3.00
2022-08-17T21:55:34.267Z,3.28
2022-08-17T22:00:46.491Z,3.15
2022-08-17T22:05:56.578Z,3.35
2022-08-17T22:08:26.978Z,3.38
2022-08-17T22:11:02.347Z,3.58
2022-08-17T22:13:30.671Z,3.28
2022-08-17T22:16:28.564Z,3.60
2022-08-17T22:18:59.503Z,3.47
2022-08-17T22:21:27.751Z,3.55
2022-08-17T22:24:04.478Z,3.67
2022-08-17T22:27:03.023Z,3.58
2022-08-17T22:29:59.518Z,3.30
2022-08-17T22:32:41.621Z,3.20
2022-08-17T22:35:32.541Z,3.58
2022-08-17T22:38:18.920Z,2.97
2022-08-17T22:41:16.636Z,2.80
2022-08-17T22:43:44.986Z,2.72
2022-08-17T22:46:15.346Z,2.95
2022-08-17T22:48:51.017Z,2.65
2022-08-17T22:51:24.020Z,2.85
2022-08-17T22:54:34.032Z,2.70
2022-08-17T22:57:23.468Z,2.65
2022-08-17T22:59:56.452Z,2.55
2022-08-17T23:02:34.258Z,2.67
2022-08-17T23:05:14.164Z,2.90
2022-08-17T23:07:46.116Z,2.58
2022-08-17T23:10:19.337Z,2.50
2022-08-17T23:12:48.582Z,2.60
2022-08-17T23:15:19.304Z,2.30
2022-08-17T23:17:49.452Z,2.40
2022-08-17T23:20:18.581Z,2.50
2022-08-17T23:22:52.040Z,2.42
2022-08-17T23:25:31.744Z,2.72
2022-08-17T23:28:03.364Z,2.70
2022-08-17T23:30:36.761Z,2.65
2022-08-17T23:33:10.412Z,2.60
2022-08-17T23:35:40.564Z,2.65
2022-08-17T23:38:13.712Z,2.60
2022-08-17T23:40:43.504Z,2.80
2022-08-17T23:43:24.371Z,2.92
2022-08-17T23:45:59.617Z,2.95
2022-08-17T23:48:36.159Z,2.80
2022-08-17T23:51:18.997Z,2.85
2022-08-17T23:53:53.943Z,2.78
2022-08-17T23:56:25.892Z,2.78
2022-08-17T23:58:55.839Z,2.80
